createdAt,value
2022-09-15T00:00:28.663Z,97799.41
2022-09-15T00:02:55.283Z,97797.03
2022-09-15T00:05:21.773Z,97795.69
2022-09-15T00:07:48.396Z,97799.69
2022-09-15T00:10:15.120Z,97798.09
2022-09-15T00:12:41.588Z,97799.19
2022-09-15T00:15:12.442Z,97795.97
2022-09-15T00:17:38.896Z,97798.41
2022-09-15T00:20:07.442Z,97794.38
2022-09-15T00:22:34.043Z,97794.66
2022-09-15T00:25:00.536Z,97789.56
2022-09-15T00:27:27.003Z,97789.84
2022-09-15T00:29:53.492Z,97789.28
2022-09-15T00:32:19.998Z,97790.09
2022-09-15T00:34:46.457Z,97782.34
2022-09-15T00:37:13.199Z,97778.06
2022-09-15T00:39:39.701Z,97768.44
2022-09-15T00:42:06.345Z,97772.97
2022-09-15T00:44:35.526Z,97773.78
2022-09-15T00:47:18.706Z,97770.03
2022-09-15T00:49:47.288Z,97771.91
2022-09-15T00:52:25.360Z,97776.47
2022-09-15T00:55:01.321Z,97778.88
2022-09-15T00:57:34.407Z,97779.38
2022-09-15T01:00:04.320Z,97782.88
2022-09-15T01:02:35.804Z,97782.59
2022-09-15T01:05:05.874Z,97787.16
2022-09-15T01:07:39.782Z,97778.59
2022-09-15T01:10:11.705Z,97781.25
2022-09-15T01:12:40.375Z,97782.63
2022-09-15T01:15:07.703Z,97780.19
2022-09-15T01:18:03.322Z,97784.75
2022-09-15T01:20:38.901Z,97784.25
2022-09-15T01:23:38.070Z,97788.25
2022-09-15T01:26:13.903Z,97779.16
2022-09-15T01:29:24.130Z,97782.09
2022-09-15T01:32:40.044Z,97780.47
2022-09-15T01:35:31.867Z,97791.19
2022-09-15T01:38:02.595Z,97787.47
2022-09-15T01:40:35.517Z,97786.66
2022-09-15T01:43:05.228Z,97791.19
2022-09-15T01:45:34.212Z,97781.56
2022-09-15T01:48:03.686Z,97779.69
2022-09-15T01:50:38.871Z,97783.16
2022-09-15T01:53:13.362Z,97780.22
2022-09-15T01:55:44.734Z,97777.28
2022-09-15T01:58:11.349Z,97777.81
2022-09-15T02:00:43.590Z,97781.56
2022-09-15T02:03:44.180Z,97783.97
2022-09-15T02:06:18.430Z,97781.00
2022-09-15T02:09:10.978Z,97774.84
2022-09-15T02:11:45.562Z,97776.19
2022-09-15T02:14:21.334Z,97785.00
2022-09-15T02:16:52.245Z,97774.84
2022-09-15T02:19:42.026Z,97772.69
2022-09-15T02:22:17.699Z,97774.56
2022-09-15T02:24:56.950Z,97775.91
2022-09-15T02:27:28.005Z,97774.03
2022-09-15T02:29:59.738Z,97775.63
2022-09-15T02:32:28.203Z,97768.13
2022-09-15T02:34:58.425Z,97772.41
2022-09-15T02:37:26.340Z,97775.09
2022-09-15T02:39:59.015Z,97774.81
2022-09-15T02:42:31.249Z,97770.25
2022-09-15T02:45:00.625Z,97771.34
2022-09-15T02:47:32.047Z,97775.91
2022-09-15T02:49:58.610Z,97770.78
2022-09-15T02:52:26.160Z,97770.25
2022-09-15T02:54:53.624Z,97773.72
2022-09-15T02:57:20.922Z,97772.69
2022-09-15T03:00:06.666Z,97776.16
2022-09-15T03:02:33.894Z,97783.91
2022-09-15T03:05:00.454Z,97785.00
2022-09-15T03:07:28.434Z,97787.38
2022-09-15T03:09:55.009Z,97789.81
2022-09-15T03:12:21.841Z,97778.28
2022-09-15T03:14:48.281Z,97788.72
2022-09-15T03:17:15.150Z,97793.81
2022-09-15T03:19:41.651Z,97793.00
2022-09-15T03:22:09.428Z,97796.22
2022-09-15T03:24:37.221Z,97793.25
2022-09-15T03:27:04.112Z,97797.28
2022-09-15T03:29:31.009Z,97798.09
2022-09-15T03:31:57.737Z,97799.13
2022-09-15T03:34:24.328Z,97796.47
2022-09-15T03:36:50.835Z,97796.22
2022-09-15T03:39:17.339Z,97799.69
2022-09-15T03:41:43.774Z,97799.69
2022-09-15T03:44:10.322Z,97799.41
2022-09-15T03:46:36.809Z,97799.41
2022-09-15T03:49:03.523Z,97801.56
2022-09-15T03:51:30.029Z,97795.16
2022-09-15T03:53:56.549Z,97792.22
2022-09-15T03:56:26.994Z,97795.41
2022-09-15T03:58:53.759Z,97794.63
2022-09-15T04:01:21.222Z,97794.63
2022-09-15T04:03:51.106Z,97786.88
2022-09-15T04:06:19.435Z,97792.47
2022-09-15T04:08:46.013Z,97787.91
2022-09-15T04:11:13.885Z,97786.88
2022-09-15T04:13:43.992Z,97786.31
2022-09-15T04:16:13.299Z,97791.16
2022-09-15T04:18:40.264Z,97787.69
2022-09-15T04:21:08.866Z,97785.25
2022-09-15T04:23:36.448Z,97796.78
2022-09-15T04:26:07.091Z,97786.84
2022-09-15T04:28:36.393Z,97790.63
2022-09-15T04:31:14.435Z,97787.44
2022-09-15T04:33:42.898Z,97792.78
2022-09-15T04:36:12.456Z,97789.03
2022-09-15T04:38:39.327Z,97785.25
2022-09-15T04:41:06.799Z,97790.91
2022-09-15T04:43:33.722Z,97790.09
2022-09-15T04:46:00.666Z,97801.34
2022-09-15T04:48:28.075Z,97811.25
2022-09-15T04:50:54.757Z,97812.06
2022-09-15T04:53:21.410Z,97818.47
2022-09-15T04:55:48.158Z,97809.09
2022-09-15T04:58:14.655Z,97811.22
2022-09-15T05:00:45.775Z,97826.72
2022-09-15T05:03:13.938Z,97824.56
2022-09-15T05:05:41.297Z,97837.88
2022-09-15T05:08:08.159Z,97838.34
2022-09-15T05:10:35.155Z,97839.13
2022-09-15T05:13:01.739Z,97848.72
2022-09-15T05:15:28.349Z,97859.84
2022-09-15T05:17:54.958Z,97858.47
2022-09-15T05:20:21.509Z,97866.91
2022-09-15T05:22:48.016Z,97874.50
2022-09-15T05:25:14.466Z,97874.31
2022-09-15T05:27:41.201Z,97881.38
2022-09-15T05:30:35.809Z,97895.16
2022-09-15T05:32:54.706Z,97904.94
2022-09-15T05:35:21.190Z,97907.28
2022-09-15T05:37:47.627Z,97910.16
2022-09-15T05:40:15.236Z,97917.38
2022-09-15T05:42:41.752Z,97924.06
2022-09-15T05:45:08.906Z,97925.69
2022-09-15T05:47:35.346Z,97923.81
2022-09-15T05:50:01.832Z,97934.16
2022-09-15T05:52:28.273Z,97948.00
2022-09-15T05:54:58.392Z,97951.50
2022-09-15T05:57:25.707Z,97946.44
2022-09-15T05:59:52.409Z,97964.38
2022-09-15T06:02:19.117Z,97955.38
2022-09-15T06:04:45.666Z,97968.22
2022-09-15T06:07:12.396Z,97962.88
2022-09-15T06:09:39.356Z,97964.00
2022-09-15T06:12:06.011Z,97968.00
2022-09-15T06:14:32.444Z,97968.31
2022-09-15T06:16:58.903Z,97973.72
2022-09-15T06:19:25.425Z,97969.41
2022-09-15T06:21:52.188Z,97979.59
2022-09-15T06:24:18.699Z,97979.63
2022-09-15T06:26:45.206Z,97982.06
2022-09-15T06:29:12.035Z,97981.84
2022-09-15T06:31:38.720Z,97989.13
2022-09-15T06:34:05.548Z,97991.88
2022-09-15T06:36:32.683Z,97987.38
2022-09-15T06:38:59.865Z,97996.00
2022-09-15T06:41:38.244Z,97982.41
2022-09-15T06:44:18.690Z,97992.91
2022-09-15T06:46:45.333Z,97988.94
2022-09-15T06:49:12.273Z,97990.53
2022-09-15T06:51:38.860Z,98005.25
2022-09-15T06:54:06.341Z,98005.25
2022-09-15T06:56:37.685Z,98013.25
2022-09-15T06:59:05.070Z,98015.41
2022-09-15T07:01:32.562Z,98009.56
2022-09-15T07:04:01.166Z,98006.13
2022-09-15T07:06:29.225Z,98009.09
2022-09-15T07:08:56.651Z,98010.75
2022-09-15T07:11:23.189Z,98007.56
2022-09-15T07:13:50.672Z,98015.06
2022-09-15T07:16:18.979Z,98015.09
2022-09-15T07:18:46.725Z,98004.19
2022-09-15T07:21:19.808Z,98009.56
2022-09-15T07:23:47.327Z,98014.06
2022-09-15T07:26:25.545Z,98019.03
2022-09-15T07:28:55.647Z,98009.69
2022-09-15T07:31:25.194Z,98007.53
2022-09-15T07:33:52.096Z,98020.88
2022-09-15T07:36:19.174Z,98028.69
2022-09-15T07:38:48.084Z,98034.03
2022-09-15T07:41:20.962Z,98033.22
2022-09-15T07:43:49.513Z,98031.41
2022-09-15T07:46:17.627Z,98022.63
2022-09-15T07:48:48.366Z,98036.06
2022-09-15T07:51:15.538Z,98037.97
2022-09-15T07:53:43.540Z,98042.25
2022-09-15T07:56:10.512Z,98046.28
2022-09-15T07:58:37.044Z,98040.69
2022-09-15T08:01:05.703Z,98041.59
2022-09-15T08:03:33.033Z,98048.78
2022-09-15T08:06:03.356Z,98051.50
2022-09-15T08:08:30.258Z,98042.19
2022-09-15T08:10:58.079Z,98045.66
2022-09-15T08:13:25.007Z,98042.72
2022-09-15T08:15:52.172Z,98046.78
2022-09-15T08:18:18.727Z,98058.06
2022-09-15T08:20:45.291Z,98055.06
2022-09-15T08:23:11.877Z,98058.56
2022-09-15T08:25:39.572Z,98062.31
2022-09-15T08:28:06.178Z,98067.41
2022-09-15T08:30:32.801Z,98066.88
2022-09-15T08:32:59.305Z,98067.41
2022-09-15T08:35:25.873Z,98077.59
2022-09-15T08:37:55.113Z,98079.75
2022-09-15T08:40:32.582Z,98087.22
2022-09-15T08:43:06.387Z,98092.09
2022-09-15T08:45:43.674Z,98108.72
2022-09-15T08:48:15.766Z,98095.09
2022-09-15T08:50:47.634Z,98104.75
2022-09-15T08:53:20.016Z,98084.13
2022-09-15T08:55:52.568Z,98086.31
2022-09-15T08:58:25.466Z,98091.66
2022-09-15T09:01:16.502Z,98103.72
2022-09-15T09:03:58.138Z,98103.72
2022-09-15T09:06:49.988Z,98110.13
2022-09-15T09:09:40.048Z,98108.31
2022-09-15T09:12:32.728Z,98117.38
2022-09-15T09:15:25.439Z,98107.47
2022-09-15T09:18:30.271Z,98119.56
2022-09-15T09:21:15.582Z,98114.78
2022-09-15T09:23:54.508Z,98112.13
2022-09-15T09:26:21.251Z,98118.84
2022-09-15T09:28:55.034Z,98121.03
2022-09-15T09:31:23.181Z,98125.03
2022-09-15T09:34:06.322Z,98124.78
2022-09-15T09:36:33.837Z,98125.59
2022-09-15T09:39:02.001Z,98132.03
2022-09-15T09:41:35.762Z,98128.78
2022-09-15T09:44:12.618Z,98128.56
2022-09-15T09:46:39.359Z,98127.50
2022-09-15T09:49:26.051Z,98132.84
2022-09-15T09:51:55.144Z,98133.66
2022-09-15T09:54:28.202Z,98130.16
2022-09-15T09:56:57.520Z,98134.69
2022-09-15T09:59:40.631Z,98134.91
2022-09-15T10:02:20.734Z,98137.56
2022-09-15T10:05:07.498Z,98135.09
2022-09-15T10:07:40.192Z,98132.94
2022-09-15T10:10:18.213Z,98143.59
2022-09-15T10:12:44.947Z,98142.22
2022-09-15T10:15:25.213Z,98143.53
2022-09-15T10:17:53.076Z,98139.53
2022-09-15T10:20:28.486Z,98140.66
2022-09-15T10:23:25.840Z,98149.31
2022-09-15T10:25:59.600Z,98143.78
2022-09-15T10:28:27.536Z,98139.00
2022-09-15T10:31:13.302Z,98140.38
2022-09-15T10:33:47.781Z,98138.25
2022-09-15T10:36:22.500Z,98141.28
2022-09-15T10:39:00.198Z,98147.47
2022-09-15T10:41:42.333Z,98144.25
2022-09-15T10:44:30.139Z,98142.44
2022-09-15T10:47:19.808Z,98144.56
2022-09-15T10:50:12.424Z,98134.91
2022-09-15T10:53:03.181Z,98149.41
2022-09-15T10:55:52.685Z,98143.97
2022-09-15T10:58:25.924Z,98146.13
2022-09-15T11:01:12.830Z,98146.63
2022-09-15T11:04:00.153Z,98144.75
2022-09-15T11:06:42.637Z,98145.19
2022-09-15T11:09:15.041Z,98140.56
2022-09-15T11:11:50.774Z,98138.41
2022-09-15T11:14:35.480Z,98137.00
2022-09-15T11:17:33.749Z,98138.09
2022-09-15T11:20:25.349Z,98132.47
2022-09-15T11:23:25.832Z,98141.53
2022-09-15T11:26:16.067Z,98137.16
2022-09-15T11:29:17.134Z,98134.69
2022-09-15T11:31:47.795Z,98133.28
2022-09-15T11:34:29.761Z,98135.97
2022-09-15T11:37:17.101Z,98136.31
2022-09-15T11:39:53.408Z,98138.50
2022-09-15T11:42:25.556Z,98144.50
2022-09-15T11:44:53.493Z,98138.41
2022-09-15T11:47:42.311Z,98133.25
2022-09-15T11:50:20.623Z,98136.69
2022-09-15T11:52:58.109Z,98131.19
2022-09-15T11:55:33.579Z,98128.66
2022-09-15T11:58:09.298Z,98135.41
2022-09-15T12:00:43.245Z,98141.44
2022-09-15T12:03:31.466Z,98134.25
2022-09-15T12:06:07.436Z,98121.34
2022-09-15T12:08:54.579Z,98127.81
2022-09-15T12:11:25.847Z,98125.31
2022-09-15T12:13:54.479Z,98125.56
2022-09-15T12:16:21.938Z,98125.25
2022-09-15T12:19:10.260Z,98128.25
2022-09-15T12:22:00.747Z,98129.69
2022-09-15T12:25:04.434Z,98136.47
2022-09-15T12:27:31.081Z,98136.94
2022-09-15T12:30:00.319Z,98141.81
2022-09-15T12:32:35.060Z,98146.78
2022-09-15T12:35:19.958Z,98145.22
2022-09-15T12:37:49.023Z,98150.34
2022-09-15T12:40:25.166Z,98143.09
2022-09-15T12:42:52.064Z,98153.56
2022-09-15T12:45:30.824Z,98153.25
2022-09-15T12:48:04.144Z,98157.47
2022-09-15T12:50:32.190Z,98158.00
2022-09-15T12:53:01.978Z,98163.13
2022-09-15T12:55:37.548Z,98165.31
2022-09-15T12:58:10.293Z,98159.13
2022-09-15T13:00:54.783Z,98157.25
2022-09-15T13:06:21.778Z,98158.97
2022-09-15T13:09:01.479Z,98155.75
2022-09-15T13:11:37.537Z,98158.19
2022-09-15T13:14:04.271Z,98160.06
2022-09-15T13:16:39.992Z,98157.34
2022-09-15T13:19:42.318Z,98169.72
2022-09-15T13:22:11.457Z,98161.91
2022-09-15T13:25:01.679Z,98166.47
2022-09-15T13:27:51.983Z,98154.56
2022-09-15T13:30:21.414Z,98160.22
2022-09-15T13:33:21.039Z,98147.06
2022-09-15T13:35:59.694Z,98146.63
2022-09-15T13:38:31.845Z,98139.50
2022-09-15T13:41:23.595Z,98144.19
2022-09-15T13:44:12.550Z,98145.19
2022-09-15T13:46:53.627Z,98143.47
2022-09-15T13:49:45.004Z,98141.19
2022-09-15T13:52:22.181Z,98147.25
2022-09-15T13:55:24.060Z,98145.00
2022-09-15T14:01:07.443Z,98141.03
2022-09-15T14:03:36.934Z,98135.53
2022-09-15T14:06:11.927Z,98138.16
2022-09-15T14:08:40.534Z,98138.44
2022-09-15T14:11:11.989Z,98130.66
2022-09-15T14:13:43.497Z,98126.03
2022-09-15T14:16:28.485Z,98131.72
2022-09-15T14:18:58.324Z,98130.84
2022-09-15T14:21:27.512Z,98137.38
2022-09-15T14:23:57.027Z,98136.28
2022-09-15T14:26:26.718Z,98140.81
2022-09-15T14:28:59.326Z,98136.69
2022-09-15T14:31:38.554Z,98141.50
2022-09-15T14:34:09.744Z,98141.69
2022-09-15T14:36:36.329Z,98142.25
2022-09-15T14:39:17.845Z,98140.75
2022-09-15T14:41:45.311Z,98142.94
2022-09-15T14:47:13.242Z,98145.72
2022-09-15T14:49:39.875Z,98137.13
2022-09-15T14:52:22.667Z,98135.47
2022-09-15T14:54:50.383Z,98136.56
2022-09-15T14:57:20.703Z,98139.56
2022-09-15T14:59:54.086Z,98134.19
2022-09-15T15:02:39.443Z,98138.53
2022-09-15T15:05:14.437Z,98135.91
2022-09-15T15:07:42.236Z,98141.59
2022-09-15T15:10:17.747Z,98136.47
2022-09-15T15:12:48.365Z,98141.81
2022-09-15T15:15:16.345Z,98140.19
2022-09-15T15:17:49.730Z,98136.47
2022-09-15T15:20:16.297Z,98136.56
2022-09-15T15:22:44.611Z,98137.69
2022-09-15T15:25:24.534Z,98146.34
2022-09-15T15:27:56.628Z,98146.16
2022-09-15T15:30:33.507Z,98152.66
2022-09-15T15:33:01.483Z,98150.03
2022-09-15T15:35:29.252Z,98144.69
2022-09-15T15:38:28.142Z,98154.06
2022-09-15T15:41:03.030Z,98146.47
2022-09-15T15:43:29.895Z,98143.75
2022-09-15T15:46:00.949Z,98145.91
2022-09-15T15:48:35.233Z,98147.25
2022-09-15T15:51:05.023Z,98142.41
2022-09-15T15:53:31.580Z,98144.84
2022-09-15T15:55:59.654Z,98149.16
2022-09-15T15:58:26.334Z,98149.47
2022-09-15T16:00:56.293Z,98155.44
2022-09-15T16:03:23.991Z,98145.25
2022-09-15T16:05:58.160Z,98157.66
2022-09-15T16:08:30.040Z,98152.31
2022-09-15T16:10:57.661Z,98159.56
2022-09-15T16:13:25.735Z,98162.56
2022-09-15T16:15:53.853Z,98159.38
2022-09-15T16:18:21.413Z,98173.38
2022-09-15T16:20:48.246Z,98157.56
2022-09-15T16:23:17.453Z,98165.69
2022-09-15T16:26:07.619Z,98153.88
2022-09-15T16:28:34.303Z,98154.97
2022-09-15T16:31:00.971Z,98162.75
2022-09-15T16:33:27.576Z,98168.13
2022-09-15T16:36:03.606Z,98168.38
2022-09-15T16:38:30.171Z,98156.59
2022-09-15T16:40:56.788Z,98161.19
2022-09-15T16:43:23.353Z,98160.38
2022-09-15T16:45:51.354Z,98164.38
2022-09-15T16:48:18.066Z,98164.66
2022-09-15T16:50:56.074Z,98162.50
2022-09-15T16:53:33.618Z,98172.72
2022-09-15T16:56:00.465Z,98160.09
2022-09-15T16:58:27.679Z,98166.50
2022-09-15T17:00:54.375Z,98161.69
2022-09-15T17:03:23.815Z,98165.44
2022-09-15T17:05:52.604Z,98170.28
2022-09-15T17:08:22.068Z,98168.97
2022-09-15T17:10:49.787Z,98173.00
2022-09-15T17:13:19.259Z,98174.34
2022-09-15T17:15:46.837Z,98171.41
2022-09-15T17:18:15.517Z,98174.34
2022-09-15T17:20:47.089Z,98184.25
2022-09-15T17:23:27.814Z,98181.31
2022-09-15T17:25:58.317Z,98182.59
2022-09-15T17:28:28.861Z,98185.81
2022-09-15T17:31:25.802Z,98190.88
2022-09-15T17:33:53.028Z,98190.06
2022-09-15T17:36:19.878Z,98192.19
2022-09-15T17:38:48.705Z,98197.00
2022-09-15T17:41:17.339Z,98198.59
2022-09-15T17:43:44.159Z,98198.03
2022-09-15T17:46:11.106Z,98193.72
2022-09-15T17:48:38.994Z,98186.47
2022-09-15T17:51:07.153Z,98181.06
2022-09-15T17:53:34.184Z,98189.06
2022-09-15T17:56:01.008Z,98190.09
2022-09-15T17:58:29.877Z,98194.13
2022-09-15T18:00:57.224Z,98202.63
2022-09-15T18:03:35.641Z,98203.41
2022-09-15T18:06:05.257Z,98202.84
2022-09-15T18:08:33.117Z,98207.66
2022-09-15T18:11:00.981Z,98204.69
2022-09-15T18:13:29.836Z,98203.06
2022-09-15T18:15:57.176Z,98204.66
2022-09-15T18:18:26.166Z,98212.13
2022-09-15T18:20:55.151Z,98212.09
2022-09-15T18:23:23.824Z,98217.13
2022-09-15T18:25:51.137Z,98219.78
2022-09-15T18:28:19.127Z,98224.84
2022-09-15T18:30:48.547Z,98223.75
2022-09-15T18:33:18.218Z,98223.94
2022-09-15T18:35:45.459Z,98228.19
2022-09-15T18:38:13.590Z,98226.84
2022-09-15T18:40:45.199Z,98233.78
2022-09-15T18:43:12.010Z,98235.34
2022-09-15T18:45:40.254Z,98236.59
2022-09-15T18:48:10.505Z,98240.28
2022-09-15T18:50:40.438Z,98245.31
2022-09-15T18:53:06.988Z,98247.94
2022-09-15T18:55:33.585Z,98249.50
2022-09-15T18:58:01.091Z,98257.50
2022-09-15T19:00:28.801Z,98255.66
2022-09-15T19:03:00.466Z,98251.34
2022-09-15T19:05:27.825Z,98259.88
2022-09-15T19:07:55.426Z,98257.69
2022-09-15T19:10:23.113Z,98271.06
2022-09-15T19:12:49.857Z,98266.53
2022-09-15T19:15:16.410Z,98261.75
2022-09-15T19:17:43.832Z,98262.53
2022-09-15T19:20:14.692Z,98269.50
2022-09-15T19:22:42.112Z,98267.34
2022-09-15T19:25:10.300Z,98276.41
2022-09-15T19:27:39.839Z,98270.53
2022-09-15T19:30:09.905Z,98291.59
2022-09-15T19:32:37.670Z,98284.88
2022-09-15T19:35:04.755Z,98289.41
2022-09-15T19:37:31.210Z,98286.75
2022-09-15T19:39:57.716Z,98285.38
2022-09-15T19:42:24.272Z,98289.41
2022-09-15T19:44:54.278Z,98291.28
2022-09-15T19:47:20.796Z,98293.59
2022-09-15T19:49:47.506Z,98290.56
2022-09-15T19:52:14.028Z,98307.66
2022-09-15T19:54:40.504Z,98304.44
2022-09-15T19:57:07.022Z,98298.88
2022-09-15T19:59:33.784Z,98304.22
2022-09-15T20:02:00.976Z,98302.09
2022-09-15T20:04:28.496Z,98306.41
2022-09-15T20:06:55.113Z,98314.66
2022-09-15T20:09:22.440Z,98306.63
2022-09-15T20:11:49.151Z,98313.34
2022-09-15T20:14:15.975Z,98314.97
2022-09-15T20:16:42.615Z,98317.38
2022-09-15T20:19:09.448Z,98314.47
2022-09-15T20:21:52.752Z,98316.09
2022-09-15T20:24:20.678Z,98320.13
2022-09-15T20:26:47.626Z,98313.72
2022-09-15T20:29:14.386Z,98312.66
2022-09-15T20:31:41.564Z,98323.63
2022-09-15T20:34:08.334Z,98316.09
2022-09-15T20:36:37.531Z,98325.41
2022-09-15T20:39:07.805Z,98316.56
2022-09-15T20:41:34.749Z,98322.72
2022-09-15T20:44:01.697Z,98318.22
2022-09-15T20:46:31.472Z,98322.19
2022-09-15T20:48:58.088Z,98314.91
2022-09-15T20:51:27.893Z,98325.78
2022-09-15T20:53:56.191Z,98325.72
2022-09-15T20:56:25.573Z,98321.19
2022-09-15T20:58:58.409Z,98322.28
2022-09-15T21:01:32.320Z,98315.41
2022-09-15T21:03:58.914Z,98323.41
2022-09-15T21:06:27.426Z,98319.94
2022-09-15T21:08:56.089Z,98320.44
2022-09-15T21:11:23.976Z,98314.53
2022-09-15T21:13:50.586Z,98317.44
2022-09-15T21:16:20.597Z,98319.88
2022-09-15T21:18:48.844Z,98319.63
2022-09-15T21:21:21.245Z,98329.25
2022-09-15T21:23:50.449Z,98326.84
2022-09-15T21:26:22.518Z,98338.59
2022-09-15T21:28:49.839Z,98333.72
2022-09-15T21:31:22.049Z,98331.31
2022-09-15T21:33:51.231Z,98342.22
2022-09-15T21:36:24.480Z,98345.97
2022-09-15T21:38:52.861Z,98338.75
2022-09-15T21:41:21.944Z,98343.28
2022-09-15T21:43:49.664Z,98337.16
2022-09-15T21:46:19.005Z,98341.69
2022-09-15T21:48:48.645Z,98351.78
2022-09-15T21:51:23.525Z,98349.13
2022-09-15T21:53:53.406Z,98346.72
2022-09-15T21:56:20.567Z,98354.47
2022-09-15T21:58:47.039Z,98353.41
2022-09-15T22:01:20.674Z,98350.72
2022-09-15T22:03:56.397Z,98350.72
2022-09-15T22:06:30.186Z,98353.66
2022-09-15T22:09:00.511Z,98356.59
2022-09-15T22:11:27.248Z,98362.16
2022-09-15T22:13:53.849Z,98352.22
2022-09-15T22:16:22.789Z,98348.69
2022-09-15T22:18:49.833Z,98358.78
2022-09-15T22:21:20.126Z,98359.59
2022-09-15T22:23:48.495Z,98358.78
2022-09-15T22:26:28.141Z,98361.72
2022-09-15T22:28:55.339Z,98361.97
2022-09-15T22:31:23.408Z,98355.25
2022-09-15T22:33:50.170Z,98361.38
2022-09-15T22:36:30.161Z,98355.50
2022-09-15T22:39:04.022Z,98358.72
2022-09-15T22:41:36.657Z,98363.50
2022-09-15T22:44:04.709Z,98356.19
2022-09-15T22:46:31.515Z,98358.59
2022-09-15T22:48:58.298Z,98349.19
2022-09-15T22:51:25.018Z,98353.94
2022-09-15T22:53:57.280Z,98352.59
2022-09-15T22:56:25.969Z,98350.41
2022-09-15T22:58:52.949Z,98348.00
2022-09-15T23:01:22.372Z,98340.72
2022-09-15T23:03:53.969Z,98348.94
2022-09-15T23:06:21.588Z,98345.97
2022-09-15T23:08:53.228Z,98345.03
2022-09-15T23:11:20.809Z,98343.66
2022-09-15T23:13:47.697Z,98344.38
2022-09-15T23:16:14.285Z,98345.44
2022-09-15T23:18:40.803Z,98353.19
2022-09-15T23:21:10.386Z,98359.34
2022-09-15T23:23:39.147Z,98351.84
2022-09-15T23:26:07.633Z,98357.19
2022-09-15T23:28:34.711Z,98358.22
2022-09-15T23:31:01.221Z,98363.31
2022-09-15T23:33:29.623Z,98365.19
2022-09-15T23:35:59.122Z,98361.13
2022-09-15T23:38:25.757Z,98365.34
2022-09-15T23:40:52.303Z,98365.25
2022-09-15T23:43:18.861Z,98362.25
2022-09-15T23:45:46.380Z,98358.53
2022-09-15T23:48:13.943Z,98368.16
2022-09-15T23:50:41.325Z,98365.25
2022-09-15T23:53:08.136Z,98361.44
2022-09-15T23:55:35.313Z,98357.06
2022-09-15T23:58:02.121Z,98354.31
